sensor_id;sensor_type;location;lat;lon;timestamp;temperature;humidity
12682;DHT22;6405;59.208;18.216;2022-10-04T00:01:51;7.80;99.90
12682;DHT22;6405;59.208;18.216;2022-10-04T00:04:40;7.80;99.90
12682;DHT22;6405;59.208;18.216;2022-10-04T00:10:05;7.80;99.90
12682;DHT22;6405;59.208;18.216;2022-10-04T00:12:37;7.80;99.90
12682;DHT22;6405;59.208;18.216;2022-10-04T00:15:24;7.80;99.90
12682;DHT22;6405;59.208;18.216;2022-10-04T00:18:28;7.80;99.90
12682;DHT22;6405;59.208;18.216;2022-10-04T00:20:57;7.80;99.90
12682;DHT22;6405;59.208;18.216;2022-10-04T00:23:25;7.90;99.90
12682;DHT22;6405;59.208;18.216;2022-10-04T00:26:00;7.80;99.90
12682;DHT22;6405;59.208;18.216;2022-10-04T00:28:40;7.80;99.90
12682;DHT22;6405;59.208;18.216;2022-10-04T00:31:21;7.80;99.90
12682;DHT22;6405;59.208;18.216;2022-10-04T00:36:52;7.70;99.90
12682;DHT22;6405;59.208;18.216;2022-10-04T00:44:55;7.60;99.90
12682;DHT22;6405;59.208;18.216;2022-10-04T00:47:52;7.60;99.90
12682;DHT22;6405;59.208;18.216;2022-10-04T00:50:32;7.50;99.90
12682;DHT22;6405;59.208;18.216;2022-10-04T00:53:11;7.40;99.90
12682;DHT22;6405;59.208;18.216;2022-10-04T00:55:49;7.40;99.90
12682;DHT22;6405;59.208;18.216;2022-10-04T00:58:26;7.40;99.90
12682;DHT22;6405;59.208;18.216;2022-10-04T01:00:54;7.40;99.90
12682;DHT22;6405;59.208;18.216;2022-10-04T01:03:32;7.40;99.90
12682;DHT22;6405;59.208;18.216;2022-10-04T01:06:03;7.40;99.90
12682;DHT22;6405;59.208;18.216;2022-10-04T01:08:35;7.40;99.90
12682;DHT22;6405;59.208;18.216;2022-10-04T01:11:35;7.40;99.90
12682;DHT22;6405;59.208;18.216;2022-10-04T01:14:28;7.40;99.90
12682;DHT22;6405;59.208;18.216;2022-10-04T01:16:55;7.40;99.90
12682;DHT22;6405;59.208;18.216;2022-10-04T01:22:10;7.40;99.90
12682;DHT22;6405;59.208;18.216;2022-10-04T01:24:42;7.40;99.90
12682;DHT22;6405;59.208;18.216;2022-10-04T01:27:43;7.40;99.90
12682;DHT22;6405;59.208;18.216;2022-10-04T01:30:15;7.40;99.90
12682;DHT22;6405;59.208;18.216;2022-10-04T01:32:42;7.30;99.90
12682;DHT22;6405;59.208;18.216;2022-10-04T01:35:11;7.30;99.90
12682;DHT22;6405;59.208;18.216;2022-10-04T01:37:39;7.20;99.90
12682;DHT22;6405;59.208;18.216;2022-10-04T01:40:07;7.20;99.90
12682;DHT22;6405;59.208;18.216;2022-10-04T01:42:44;7.10;99.90
12682;DHT22;6405;59.208;18.216;2022-10-04T01:48:02;6.90;99.90
12682;DHT22;6405;59.208;18.216;2022-10-04T01:53:35;6.80;99.90
12682;DHT22;6405;59.208;18.216;2022-10-04T01:56:17;6.80;99.90
12682;DHT22;6405;59.208;18.216;2022-10-04T01:58:45;6.80;99.90
12682;DHT22;6405;59.208;18.216;2022-10-04T02:01:25;6.80;99.90
12682;DHT22;6405;59.208;18.216;2022-10-04T02:06:25;6.70;99.90
12682;DHT22;6405;59.208;18.216;2022-10-04T02:08:53;6.80;99.90
12682;DHT22;6405;59.208;18.216;2022-10-04T02:11:23;6.70;99.90
12682;DHT22;6405;59.208;18.216;2022-10-04T02:13:54;6.70;99.90
12682;DHT22;6405;59.208;18.216;2022-10-04T02:16:20;6.80;99.90
12682;DHT22;6405;59.208;18.216;2022-10-04T02:18:48;6.60;99.90
12682;DHT22;6405;59.208;18.216;2022-10-04T02:21:17;6.60;99.90
12682;DHT22;6405;59.208;18.216;2022-10-04T02:23:45;6.50;99.90
12682;DHT22;6405;59.208;18.216;2022-10-04T02:26:13;6.60;99.90
12682;DHT22;6405;59.208;18.216;2022-10-04T02:28:40;6.40;99.90
12682;DHT22;6405;59.208;18.216;2022-10-04T02:31:09;6.30;99.90
12682;DHT22;6405;59.208;18.216;2022-10-04T02:33:57;6.30;99.90
12682;DHT22;6405;59.208;18.216;2022-10-04T02:36:26;6.20;99.90
12682;DHT22;6405;59.208;18.216;2022-10-04T02:39:14;6.30;99.90
12682;DHT22;6405;59.208;18.216;2022-10-04T02:41:52;6.20;99.90
12682;DHT22;6405;59.208;18.216;2022-10-04T02:44:26;6.10;99.90
12682;DHT22;6405;59.208;18.216;2022-10-04T02:47:19;6.20;99.90
12682;DHT22;6405;59.208;18.216;2022-10-04T02:49:55;6.20;99.90
12682;DHT22;6405;59.208;18.216;2022-10-04T02:52:45;6.10;99.90
12682;DHT22;6405;59.208;18.216;2022-10-04T02:55:19;6.00;99.90
12682;DHT22;6405;59.208;18.216;2022-10-04T02:57:48;6.00;99.90
12682;DHT22;6405;59.208;18.216;2022-10-04T03:00:21;6.00;99.90
12682;DHT22;6405;59.208;18.216;2022-10-04T03:03:14;6.00;99.90
12682;DHT22;6405;59.208;18.216;2022-10-04T03:05:45;6.00;99.90
12682;DHT22;6405;59.208;18.216;2022-10-04T03:08:13;6.20;99.90
12682;DHT22;6405;59.208;18.216;2022-10-04T03:10:41;6.10;99.90
12682;DHT22;6405;59.208;18.216;2022-10-04T03:13:11;6.10;99.90
12682;DHT22;6405;59.208;18.216;2022-10-04T03:15:38;6.10;99.90
12682;DHT22;6405;59.208;18.216;2022-10-04T03:18:06;6.10;99.90
12682;DHT22;6405;59.208;18.216;2022-10-04T03:20:38;6.00;99.90
12682;DHT22;6405;59.208;18.216;2022-10-04T03:23:06;6.00;99.90
12682;DHT22;6405;59.208;18.216;2022-10-04T03:25:51;6.00;99.90
12682;DHT22;6405;59.208;18.216;2022-10-04T03:28:17;6.10;99.90
12682;DHT22;6405;59.208;18.216;2022-10-04T03:30:46;6.00;99.90
12682;DHT22;6405;59.208;18.216;2022-10-04T03:33:25;6.00;99.90
12682;DHT22;6405;59.208;18.216;2022-10-04T03:35:53;6.00;99.90
12682;DHT22;6405;59.208;18.216;2022-10-04T03:38:22;6.00;99.90
12682;DHT22;6405;59.208;18.216;2022-10-04T03:40:56;6.00;99.90
12682;DHT22;6405;59.208;18.216;2022-10-04T03:43:27;6.00;99.90
12682;DHT22;6405;59.208;18.216;2022-10-04T03:45:54;5.90;99.90
12682;DHT22;6405;59.208;18.216;2022-10-04T03:48:28;5.80;99.90
12682;DHT22;6405;59.208;18.216;2022-10-04T03:50:57;5.80;99.90
12682;DHT22;6405;59.208;18.216;2022-10-04T03:53:38;5.70;99.90
12682;DHT22;6405;59.208;18.216;2022-10-04T03:56:16;5.60;99.90
12682;DHT22;6405;59.208;18.216;2022-10-04T03:58:45;5.60;99.90
12682;DHT22;6405;59.208;18.216;2022-10-04T04:01:36;5.50;99.90
12682;DHT22;6405;59.208;18.216;2022-10-04T04:12:12;5.20;99.90
12682;DHT22;6405;59.208;18.216;2022-10-04T04:14:41;5.20;99.90
12682;DHT22;6405;59.208;18.216;2022-10-04T04:17:29;5.10;99.90
12682;DHT22;6405;59.208;18.216;2022-10-04T04:20:05;5.10;99.90
12682;DHT22;6405;59.208;18.216;2022-10-04T04:22:33;5.10;99.90
12682;DHT22;6405;59.208;18.216;2022-10-04T04:25:05;5.00;99.90
12682;DHT22;6405;59.208;18.216;2022-10-04T04:27:37;5.00;99.90
12682;DHT22;6405;59.208;18.216;2022-10-04T04:30:05;5.10;99.90
12682;DHT22;6405;59.208;18.216;2022-10-04T04:32:39;4.90;99.90
12682;DHT22;6405;59.208;18.216;2022-10-04T04:35:32;4.90;99.90
12682;DHT22;6405;59.208;18.216;2022-10-04T04:38:20;4.90;99.90
12682;DHT22;6405;59.208;18.216;2022-10-04T04:40:47;4.90;99.90
12682;DHT22;6405;59.208;18.216;2022-10-04T04:43:18;5.00;99.90
12682;DHT22;6405;59.208;18.216;2022-10-04T04:45:49;5.00;99.90
12682;DHT22;6405;59.208;18.216;2022-10-04T04:48:17;5.10;99.90
12682;DHT22;6405;59.208;18.216;2022-10-04T04:50:52;5.30;99.90
12682;DHT22;6405;59.208;18.216;2022-10-04T04:53:26;5.30;99.90
12682;DHT22;6405;59.208;18.216;2022-10-04T04:56:01;5.30;99.90
12682;DHT22;6405;59.208;18.216;2022-10-04T04:58:49;5.40;99.90
12682;DHT22;6405;59.208;18.216;2022-10-04T05:01:27;5.30;99.90
12682;DHT22;6405;59.208;18.216;2022-10-04T05:04:04;5.30;99.90
12682;DHT22;6405;59.208;18.216;2022-10-04T05:06:33;5.30;99.90
12682;DHT22;6405;59.208;18.216;2022-10-04T05:09:01;5.30;99.90
12682;DHT22;6405;59.208;18.216;2022-10-04T05:11:36;5.20;99.90
12682;DHT22;6405;59.208;18.216;2022-10-04T05:14:09;5.20;99.90
12682;DHT22;6405;59.208;18.216;2022-10-04T05:16:46;5.10;99.90
12682;DHT22;6405;59.208;18.216;2022-10-04T05:19:29;5.10;99.90
12682;DHT22;6405;59.208;18.216;2022-10-04T05:21:59;5.10;99.90
12682;DHT22;6405;59.208;18.216;2022-10-04T05:24:34;5.20;99.90
12682;DHT22;6405;59.208;18.216;2022-10-04T05:27:05;5.20;99.90
12682;DHT22;6405;59.208;18.216;2022-10-04T05:29:37;5.20;99.90
12682;DHT22;6405;59.208;18.216;2022-10-04T05:34:57;5.20;99.90
12682;DHT22;6405;59.208;18.216;2022-10-04T05:42:41;5.30;99.90
12682;DHT22;6405;59.208;18.216;2022-10-04T05:45:26;5.40;99.90
12682;DHT22;6405;59.208;18.216;2022-10-04T05:47:59;5.40;99.90
12682;DHT22;6405;59.208;18.216;2022-10-04T05:50:38;5.40;99.90
12682;DHT22;6405;59.208;18.216;2022-10-04T05:53:32;5.50;99.90
12682;DHT22;6405;59.208;18.216;2022-10-04T05:56:22;5.40;99.90
12682;DHT22;6405;59.208;18.216;2022-10-04T06:01:49;5.40;99.90
12682;DHT22;6405;59.208;18.216;2022-10-04T06:07:14;5.40;99.90
12682;DHT22;6405;59.208;18.216;2022-10-04T06:18:06;5.60;99.90
12682;DHT22;6405;59.208;18.216;2022-10-04T06:23:16;5.60;99.90
12682;DHT22;6405;59.208;18.216;2022-10-04T06:26:02;5.70;99.90
12682;DHT22;6405;59.208;18.216;2022-10-04T06:29:09;5.70;99.90
12682;DHT22;6405;59.208;18.216;2022-10-04T06:34:27;5.80;99.90
12682;DHT22;6405;59.208;18.216;2022-10-04T06:45:39;5.90;99.90
12682;DHT22;6405;59.208;18.216;2022-10-04T06:48:26;6.00;99.90
12682;DHT22;6405;59.208;18.216;2022-10-04T06:53:55;6.10;99.90
12682;DHT22;6405;59.208;18.216;2022-10-04T07:00:31;6.20;99.90
12682;DHT22;6405;59.208;18.216;2022-10-04T07:02:45;6.30;99.90
12682;DHT22;6405;59.208;18.216;2022-10-04T07:07:53;6.40;99.90
12682;DHT22;6405;59.208;18.216;2022-10-04T07:10:47;6.50;99.90
12682;DHT22;6405;59.208;18.216;2022-10-04T07:16:39;6.70;99.90
12682;DHT22;6405;59.208;18.216;2022-10-04T07:21:53;6.70;99.90
12682;DHT22;6405;59.208;18.216;2022-10-04T07:24:26;6.70;99.90
12682;DHT22;6405;59.208;18.216;2022-10-04T07:26:56;6.90;99.90
12682;DHT22;6405;59.208;18.216;2022-10-04T07:29:27;6.80;99.90
12682;DHT22;6405;59.208;18.216;2022-10-04T07:34:53;7.10;99.90
12682;DHT22;6405;59.208;18.216;2022-10-04T07:37:23;7.20;99.90
12682;DHT22;6405;59.208;18.216;2022-10-04T07:43:05;7.30;99.90
12682;DHT22;6405;59.208;18.216;2022-10-04T07:45:37;7.30;99.90
12682;DHT22;6405;59.208;18.216;2022-10-04T07:48:19;7.30;99.90
12682;DHT22;6405;59.208;18.216;2022-10-04T07:54:03;7.30;99.90
12682;DHT22;6405;59.208;18.216;2022-10-04T07:56:45;7.40;99.90
12682;DHT22;6405;59.208;18.216;2022-10-04T07:59:37;7.50;99.90
12682;DHT22;6405;59.208;18.216;2022-10-04T08:02:19;7.60;99.90
12682;DHT22;6405;59.208;18.216;2022-10-04T08:08:10;7.70;99.90
12682;DHT22;6405;59.208;18.216;2022-10-04T08:10:59;7.70;99.90
12682;DHT22;6405;59.208;18.216;2022-10-04T08:16:36;8.00;99.90
12682;DHT22;6405;59.208;18.216;2022-10-04T08:24:29;8.50;99.90
12682;DHT22;6405;59.208;18.216;2022-10-04T08:29:51;8.70;99.90
12682;DHT22;6405;59.208;18.216;2022-10-04T08:36:10;8.70;99.90
12682;DHT22;6405;59.208;18.216;2022-10-04T08:38:48;8.70;99.90
12682;DHT22;6405;59.208;18.216;2022-10-04T08:56:05;9.40;99.90
12682;DHT22;6405;59.208;18.216;2022-10-04T09:02:05;9.40;99.90
12682;DHT22;6405;59.208;18.216;2022-10-04T09:05:07;9.50;99.90
12682;DHT22;6405;59.208;18.216;2022-10-04T09:08:19;9.60;99.90
12682;DHT22;6405;59.208;18.216;2022-10-04T09:19:53;10.00;99.90
12682;DHT22;6405;59.208;18.216;2022-10-04T09:22:46;10.00;99.90
12682;DHT22;6405;59.208;18.216;2022-10-04T09:34:32;10.30;99.90
12682;DHT22;6405;59.208;18.216;2022-10-04T09:37:19;10.50;99.90
12682;DHT22;6405;59.208;18.216;2022-10-04T09:43:10;10.60;99.90
12682;DHT22;6405;59.208;18.216;2022-10-04T09:46:08;10.70;99.90
12682;DHT22;6405;59.208;18.216;2022-10-04T09:48:50;10.70;99.90
12682;DHT22;6405;59.208;18.216;2022-10-04T09:54:12;10.80;99.90
12682;DHT22;6405;59.208;18.216;2022-10-04T09:56:46;10.90;99.90
12682;DHT22;6405;59.208;18.216;2022-10-04T09:59:31;11.00;99.90
12682;DHT22;6405;59.208;18.216;2022-10-04T10:05:29;11.20;99.90
12682;DHT22;6405;59.208;18.216;2022-10-04T10:17:31;11.40;99.90
12682;DHT22;6405;59.208;18.216;2022-10-04T10:20:26;11.40;99.90
12682;DHT22;6405;59.208;18.216;2022-10-04T10:28:29;11.60;99.90
12682;DHT22;6405;59.208;18.216;2022-10-04T10:37:03;11.90;99.90
12682;DHT22;6405;59.208;18.216;2022-10-04T10:45:31;12.10;99.90
12682;DHT22;6405;59.208;18.216;2022-10-04T10:48:15;12.20;99.90
12682;DHT22;6405;59.208;18.216;2022-10-04T10:56:49;12.30;99.90
12682;DHT22;6405;59.208;18.216;2022-10-04T10:59:41;12.40;99.90
12682;DHT22;6405;59.208;18.216;2022-10-04T11:07:55;12.60;99.90
12682;DHT22;6405;59.208;18.216;2022-10-04T11:16:52;12.70;99.90
12682;DHT22;6405;59.208;18.216;2022-10-04T11:40:05;13.40;99.90
12682;DHT22;6405;59.208;18.216;2022-10-04T11:59:02;13.70;99.90
12682;DHT22;6405;59.208;18.216;2022-10-04T12:07:44;13.80;99.90
12682;DHT22;6405;59.208;18.216;2022-10-04T12:13:38;14.00;99.90
12682;DHT22;6405;59.208;18.216;2022-10-04T12:17:07;14.00;99.90
12682;DHT22;6405;59.208;18.216;2022-10-04T12:22:01;14.10;99.90
12682;DHT22;6405;59.208;18.216;2022-10-04T12:25:19;14.10;99.90
12682;DHT22;6405;59.208;18.216;2022-10-04T12:33:31;14.10;99.90
12682;DHT22;6405;59.208;18.216;2022-10-04T12:36:07;14.10;99.90
12682;DHT22;6405;59.208;18.216;2022-10-04T12:44:23;14.20;99.90
12682;DHT22;6405;59.208;18.216;2022-10-04T12:49:58;14.20;99.90
12682;DHT22;6405;59.208;18.216;2022-10-04T12:52:31;14.20;99.90
12682;DHT22;6405;59.208;18.216;2022-10-04T12:55:16;14.20;99.90
12682;DHT22;6405;59.208;18.216;2022-10-04T12:58:08;14.20;99.90
12682;DHT22;6405;59.208;18.216;2022-10-04T13:00:43;14.20;99.90
12682;DHT22;6405;59.208;18.216;2022-10-04T13:12:02;14.20;99.90
12682;DHT22;6405;59.208;18.216;2022-10-04T13:14:39;14.20;99.90
12682;DHT22;6405;59.208;18.216;2022-10-04T13:33:39;14.30;99.90
12682;DHT22;6405;59.208;18.216;2022-10-04T13:36:28;14.20;99.90
12682;DHT22;6405;59.208;18.216;2022-10-04T13:41:43;14.20;99.90
12682;DHT22;6405;59.208;18.216;2022-10-04T13:50:23;14.10;99.90
12682;DHT22;6405;59.208;18.216;2022-10-04T13:52:55;14.10;99.90
12682;DHT22;6405;59.208;18.216;2022-10-04T14:09:45;14.00;99.90
12682;DHT22;6405;59.208;18.216;2022-10-04T14:18:40;13.80;99.90
12682;DHT22;6405;59.208;18.216;2022-10-04T14:21:28;13.70;99.90
12682;DHT22;6405;59.208;18.216;2022-10-04T14:35:25;13.50;99.90
12682;DHT22;6405;59.208;18.216;2022-10-04T14:41:15;13.30;99.90
12682;DHT22;6405;59.208;18.216;2022-10-04T14:44:10;13.20;99.90
12682;DHT22;6405;59.208;18.216;2022-10-04T14:46:52;13.10;99.90
12682;DHT22;6405;59.208;18.216;2022-10-04T14:58:52;13.00;99.90
12682;DHT22;6405;59.208;18.216;2022-10-04T15:01:25;12.90;99.90
12682;DHT22;6405;59.208;18.216;2022-10-04T15:20:50;12.00;99.90
12682;DHT22;6405;59.208;18.216;2022-10-04T15:23:34;11.90;99.90
12682;DHT22;6405;59.208;18.216;2022-10-04T15:32:23;11.50;99.90
12682;DHT22;6405;59.208;18.216;2022-10-04T15:40:07;11.20;99.90
12682;DHT22;6405;59.208;18.216;2022-10-04T15:42:57;11.00;99.90
12682;DHT22;6405;59.208;18.216;2022-10-04T15:59:17;10.30;99.90
12682;DHT22;6405;59.208;18.216;2022-10-04T16:01:54;10.10;99.90
12682;DHT22;6405;59.208;18.216;2022-10-04T16:13:10;9.70;99.90
12682;DHT22;6405;59.208;18.216;2022-10-04T16:15:44;9.60;99.90
12682;DHT22;6405;59.208;18.216;2022-10-04T16:21:52;9.40;99.90
12682;DHT22;6405;59.208;18.216;2022-10-04T16:32:24;9.00;99.90
12682;DHT22;6405;59.208;18.216;2022-10-04T16:37:53;8.80;99.90
12682;DHT22;6405;59.208;18.216;2022-10-04T16:46:08;8.60;99.90
12682;DHT22;6405;59.208;18.216;2022-10-04T17:13:30;8.50;99.90
12682;DHT22;6405;59.208;18.216;2022-10-04T17:16:09;8.60;99.90
12682;DHT22;6405;59.208;18.216;2022-10-04T17:18:52;8.70;99.90
12682;DHT22;6405;59.208;18.216;2022-10-04T17:21:33;8.80;99.90
12682;DHT22;6405;59.208;18.216;2022-10-04T17:24:14;8.90;99.90
12682;DHT22;6405;59.208;18.216;2022-10-04T17:28:09;9.00;99.90
12682;DHT22;6405;59.208;18.216;2022-10-04T17:30:20;9.10;99.90
12682;DHT22;6405;59.208;18.216;2022-10-04T17:38:45;9.20;99.90
12682;DHT22;6405;59.208;18.216;2022-10-04T17:44:27;9.20;99.90
12682;DHT22;6405;59.208;18.216;2022-10-04T17:47:13;9.10;99.90
12682;DHT22;6405;59.208;18.216;2022-10-04T17:50:11;9.10;99.90
12682;DHT22;6405;59.208;18.216;2022-10-04T17:53:03;9.20;99.90
12682;DHT22;6405;59.208;18.216;2022-10-04T17:55:53;9.20;99.90
12682;DHT22;6405;59.208;18.216;2022-10-04T17:58:41;9.50;99.90
12682;DHT22;6405;59.208;18.216;2022-10-04T18:01:43;9.80;99.90
12682;DHT22;6405;59.208;18.216;2022-10-04T18:04:24;10.00;99.90
12682;DHT22;6405;59.208;18.216;2022-10-04T18:07:12;10.00;99.90
12682;DHT22;6405;59.208;18.216;2022-10-04T18:09:57;10.20;99.90
12682;DHT22;6405;59.208;18.216;2022-10-04T18:15:19;10.30;99.90
12682;DHT22;6405;59.208;18.216;2022-10-04T18:17:49;10.30;99.90
12682;DHT22;6405;59.208;18.216;2022-10-04T18:20:29;10.40;99.90
12682;DHT22;6405;59.208;18.216;2022-10-04T18:22:59;10.60;99.90
12682;DHT22;6405;59.208;18.216;2022-10-04T18:25:30;10.80;99.90
12682;DHT22;6405;59.208;18.216;2022-10-04T18:33:29;10.60;99.90
12682;DHT22;6405;59.208;18.216;2022-10-04T18:38:32;10.70;99.90
12682;DHT22;6405;59.208;18.216;2022-10-04T18:41:17;10.70;99.90
12682;DHT22;6405;59.208;18.216;2022-10-04T18:46:24;10.70;99.90
12682;DHT22;6405;59.208;18.216;2022-10-04T18:49:22;10.70;99.90
12682;DHT22;6405;59.208;18.216;2022-10-04T18:52:06;10.70;99.90
12682;DHT22;6405;59.208;18.216;2022-10-04T18:57:51;10.70;99.90
12682;DHT22;6405;59.208;18.216;2022-10-04T19:00:52;10.70;99.90
12682;DHT22;6405;59.208;18.216;2022-10-04T19:03:56;10.80;99.90
12682;DHT22;6405;59.208;18.216;2022-10-04T19:06:29;10.80;99.90
12682;DHT22;6405;59.208;18.216;2022-10-04T19:11:54;10.90;99.90
12682;DHT22;6405;59.208;18.216;2022-10-04T19:17:43;10.90;99.90
12682;DHT22;6405;59.208;18.216;2022-10-04T19:25:45;11.00;99.90
12682;DHT22;6405;59.208;18.216;2022-10-04T19:28:22;11.00;99.90
12682;DHT22;6405;59.208;18.216;2022-10-04T19:34:08;11.00;99.90
12682;DHT22;6405;59.208;18.216;2022-10-04T19:36:58;11.00;99.90
12682;DHT22;6405;59.208;18.216;2022-10-04T19:48:24;10.90;99.90
12682;DHT22;6405;59.208;18.216;2022-10-04T19:51:16;10.90;99.90
12682;DHT22;6405;59.208;18.216;2022-10-04T19:53:44;10.90;99.90
12682;DHT22;6405;59.208;18.216;2022-10-04T19:56:17;11.00;99.90
12682;DHT22;6405;59.208;18.216;2022-10-04T19:59:06;10.90;99.90
12682;DHT22;6405;59.208;18.216;2022-10-04T20:01:34;10.90;99.90
12682;DHT22;6405;59.208;18.216;2022-10-04T20:04:10;10.90;99.90
12682;DHT22;6405;59.208;18.216;2022-10-04T20:06:56;10.90;99.90
12682;DHT22;6405;59.208;18.216;2022-10-04T20:12:26;10.90;99.90
12682;DHT22;6405;59.208;18.216;2022-10-04T20:17:53;10.90;99.90
12682;DHT22;6405;59.208;18.216;2022-10-04T20:23:09;11.00;99.90
12682;DHT22;6405;59.208;18.216;2022-10-04T20:30:57;11.00;99.90
12682;DHT22;6405;59.208;18.216;2022-10-04T20:36:01;11.00;99.90
12682;DHT22;6405;59.208;18.216;2022-10-04T20:38:54;11.00;99.90
12682;DHT22;6405;59.208;18.216;2022-10-04T20:43:57;11.00;99.90
12682;DHT22;6405;59.208;18.216;2022-10-04T20:46:25;11.10;99.90
12682;DHT22;6405;59.208;18.216;2022-10-04T20:48:53;11.00;99.90
12682;DHT22;6405;59.208;18.216;2022-10-04T20:51:28;11.20;99.90
12682;DHT22;6405;59.208;18.216;2022-10-04T20:53:59;11.10;99.90
12682;DHT22;6405;59.208;18.216;2022-10-04T20:56:30;11.10;99.90
12682;DHT22;6405;59.208;18.216;2022-10-04T20:58:59;11.10;99.90
12682;DHT22;6405;59.208;18.216;2022-10-04T21:01:29;11.10;99.90
12682;DHT22;6405;59.208;18.216;2022-10-04T21:04:21;11.10;99.90
12682;DHT22;6405;59.208;18.216;2022-10-04T21:07:09;11.10;99.90
12682;DHT22;6405;59.208;18.216;2022-10-04T21:09:40;11.10;99.90
12682;DHT22;6405;59.208;18.216;2022-10-04T21:18:05;11.10;99.90
12682;DHT22;6405;59.208;18.216;2022-10-04T21:20:47;11.10;99.90
12682;DHT22;6405;59.208;18.216;2022-10-04T21:23:33;11.10;99.90
12682;DHT22;6405;59.208;18.216;2022-10-04T21:26:22;11.10;99.90
12682;DHT22;6405;59.208;18.216;2022-10-04T21:28:52;11.00;99.90
12682;DHT22;6405;59.208;18.216;2022-10-04T21:31:19;11.10;99.90
12682;DHT22;6405;59.208;18.216;2022-10-04T21:33:46;11.10;99.90
12682;DHT22;6405;59.208;18.216;2022-10-04T21:36:13;11.10;99.90
12682;DHT22;6405;59.208;18.216;2022-10-04T21:38:39;11.00;99.90
12682;DHT22;6405;59.208;18.216;2022-10-04T21:41:07;11.10;99.90
12682;DHT22;6405;59.208;18.216;2022-10-04T21:43:34;11.00;99.90
12682;DHT22;6405;59.208;18.216;2022-10-04T21:46:01;11.00;99.90
12682;DHT22;6405;59.208;18.216;2022-10-04T21:48:28;11.00;99.90
12682;DHT22;6405;59.208;18.216;2022-10-04T21:50:54;11.00;99.90
12682;DHT22;6405;59.208;18.216;2022-10-04T21:53:20;11.00;99.90
12682;DHT22;6405;59.208;18.216;2022-10-04T21:55:47;11.00;99.90
12682;DHT22;6405;59.208;18.216;2022-10-04T21:58:13;11.10;99.90
12682;DHT22;6405;59.208;18.216;2022-10-04T22:00:40;11.00;99.90
12682;DHT22;6405;59.208;18.216;2022-10-04T22:03:09;11.00;99.90
12682;DHT22;6405;59.208;18.216;2022-10-04T22:05:35;10.90;99.90
12682;DHT22;6405;59.208;18.216;2022-10-04T22:08:04;10.90;99.90
12682;DHT22;6405;59.208;18.216;2022-10-04T22:10:30;11.00;99.90
12682;DHT22;6405;59.208;18.216;2022-10-04T22:12:58;11.00;99.90
12682;DHT22;6405;59.208;18.216;2022-10-04T22:15:25;11.00;99.90
12682;DHT22;6405;59.208;18.216;2022-10-04T22:17:52;10.90;99.90
12682;DHT22;6405;59.208;18.216;2022-10-04T22:20:20;10.90;99.90
12682;DHT22;6405;59.208;18.216;2022-10-04T22:22:47;10.90;99.90
12682;DHT22;6405;59.208;18.216;2022-10-04T22:25:18;10.90;99.90
12682;DHT22;6405;59.208;18.216;2022-10-04T22:27:45;11.00;99.90
12682;DHT22;6405;59.208;18.216;2022-10-04T22:32:48;10.90;99.90
12682;DHT22;6405;59.208;18.216;2022-10-04T22:35:18;11.00;99.90
12682;DHT22;6405;59.208;18.216;2022-10-04T22:37:47;10.90;99.90
12682;DHT22;6405;59.208;18.216;2022-10-04T22:40:21;10.90;99.90
12682;DHT22;6405;59.208;18.216;2022-10-04T22:42:52;11.00;99.90
12682;DHT22;6405;59.208;18.216;2022-10-04T22:45:28;11.00;99.90
12682;DHT22;6405;59.208;18.216;2022-10-04T22:47:58;11.00;99.90
12682;DHT22;6405;59.208;18.216;2022-10-04T22:50:31;10.90;99.90
12682;DHT22;6405;59.208;18.216;2022-10-04T22:53:29;10.90;99.90
12682;DHT22;6405;59.208;18.216;2022-10-04T22:55:56;10.90;99.90
12682;DHT22;6405;59.208;18.216;2022-10-04T22:58:23;10.90;99.90
12682;DHT22;6405;59.208;18.216;2022-10-04T23:00:50;10.90;99.90
12682;DHT22;6405;59.208;18.216;2022-10-04T23:03:26;10.80;99.90
12682;DHT22;6405;59.208;18.216;2022-10-04T23:05:57;10.90;99.90
12682;DHT22;6405;59.208;18.216;2022-10-04T23:08:24;10.90;99.90
12682;DHT22;6405;59.208;18.216;2022-10-04T23:10:55;10.80;99.90
12682;DHT22;6405;59.208;18.216;2022-10-04T23:13:25;10.80;99.90
12682;DHT22;6405;59.208;18.216;2022-10-04T23:15:57;10.80;99.90
12682;DHT22;6405;59.208;18.216;2022-10-04T23:18:26;10.80;99.90
12682;DHT22;6405;59.208;18.216;2022-10-04T23:20:56;10.90;99.90
12682;DHT22;6405;59.208;18.216;2022-10-04T23:23:29;10.80;99.90
12682;DHT22;6405;59.208;18.216;2022-10-04T23:25:56;10.80;99.90
12682;DHT22;6405;59.208;18.216;2022-10-04T23:28:23;10.90;99.90
12682;DHT22;6405;59.208;18.216;2022-10-04T23:30:59;10.80;99.90
12682;DHT22;6405;59.208;18.216;2022-10-04T23:33:27;10.80;99.90
12682;DHT22;6405;59.208;18.216;2022-10-04T23:35:55;10.80;99.90
12682;DHT22;6405;59.208;18.216;2022-10-04T23:38:24;10.80;99.90
12682;DHT22;6405;59.208;18.216;2022-10-04T23:40:52;10.80;99.90
12682;DHT22;6405;59.208;18.216;2022-10-04T23:43:22;10.70;99.90
12682;DHT22;6405;59.208;18.216;2022-10-04T23:45:54;10.70;99.90
12682;DHT22;6405;59.208;18.216;2022-10-04T23:48:24;10.70;99.90
12682;DHT22;6405;59.208;18.216;2022-10-04T23:50:53;10.70;99.90
12682;DHT22;6405;59.208;18.216;2022-10-04T23:53:25;10.70;99.90
12682;DHT22;6405;59.208;18.216;2022-10-04T23:55:57;10.70;99.90
12682;DHT22;6405;59.208;18.216;2022-10-04T23:58:31;10.60;99.90
